createdAt,value
2018-12-26T00:02:24.410Z,76.95
2018-12-26T00:04:54.699Z,76.40
2018-12-26T00:07:25.028Z,76.53
2018-12-26T00:10:14.452Z,76.25
2018-12-26T00:12:44.884Z,76.77
2018-12-26T00:15:15.177Z,75.75
2018-12-26T00:17:45.437Z,75.03
2018-12-26T00:20:17.367Z,75.12
2018-12-26T00:22:47.634Z,73.40
2018-12-26T00:25:18.011Z,75.72
2018-12-26T00:27:48.378Z,75.15
2018-12-26T00:30:18.738Z,74.27
2018-12-26T00:32:49.058Z,74.10
2018-12-26T00:35:19.429Z,72.78
2018-12-26T00:37:49.760Z,71.60
2018-12-26T00:40:20.114Z,73.40
2018-12-26T00:42:50.374Z,70.90
2018-12-26T00:45:20.727Z,70.08
2018-12-26T00:47:51.058Z,70.55
2018-12-26T00:50:21.388Z,69.50
2018-12-26T00:52:51.657Z,67.25
2018-12-26T00:55:21.917Z,67.97
2018-12-26T00:57:52.174Z,69.53
2018-12-26T01:00:22.512Z,68.30
2018-12-26T01:02:52.828Z,66.17
2018-12-26T01:05:23.114Z,66.07
2018-12-26T01:07:53.407Z,65.65
2018-12-26T01:10:23.656Z,65.87
2018-12-26T01:12:54.004Z,64.72
2018-12-26T01:15:24.332Z,62.90
2018-12-26T01:17:54.623Z,64.90
2018-12-26T01:20:24.882Z,65.67
2018-12-26T01:22:55.162Z,62.83
2018-12-26T01:25:25.422Z,62.10
2018-12-26T01:27:55.776Z,60.52
2018-12-26T01:30:26.131Z,59.65
2018-12-26T01:32:56.404Z,60.85
2018-12-26T01:35:26.696Z,60.95
2018-12-26T01:37:57.028Z,59.33
2018-12-26T01:40:27.406Z,57.45
2018-12-26T01:42:57.729Z,58.75
2018-12-26T01:45:28.016Z,58.00
2018-12-26T01:47:58.347Z,56.30
2018-12-26T01:50:28.623Z,56.35
2018-12-26T01:52:58.941Z,55.70
2018-12-26T01:55:29.218Z,53.85
2018-12-26T01:57:59.474Z,54.53
2018-12-26T02:00:29.834Z,54.58
2018-12-26T02:03:00.091Z,53.52
2018-12-26T02:05:30.407Z,53.52
2018-12-26T02:08:00.660Z,52.08
2018-12-26T02:10:31.019Z,50.67
2018-12-26T02:13:01.354Z,53.20
2018-12-26T02:15:31.653Z,49.00
2018-12-26T02:18:21.055Z,50.65
2018-12-26T02:20:51.391Z,49.35
2018-12-26T02:23:21.717Z,50.73
2018-12-26T02:25:52.000Z,48.30
2018-12-26T02:28:22.262Z,48.78
2018-12-26T02:30:52.520Z,47.58
2018-12-26T02:33:22.885Z,46.33
2018-12-26T02:35:53.202Z,48.10
2018-12-26T02:38:23.494Z,45.25
2018-12-26T02:40:53.746Z,46.45
2018-12-26T02:43:24.099Z,45.17
2018-12-26T02:45:54.372Z,45.35
2018-12-26T02:48:24.664Z,44.20
2018-12-26T02:50:54.933Z,44.55
2018-12-26T02:53:25.235Z,42.23
2018-12-26T02:55:55.496Z,43.63
2018-12-26T02:58:25.781Z,41.60
2018-12-26T03:00:56.108Z,40.90
2018-12-26T03:03:26.490Z,41.73
2018-12-26T03:05:56.842Z,41.50
2018-12-26T03:08:27.119Z,39.85
2018-12-26T03:10:57.446Z,38.53
2018-12-26T03:13:27.734Z,39.20
2018-12-26T03:15:57.999Z,39.08
2018-12-26T03:18:28.333Z,40.40
2018-12-26T03:20:58.678Z,36.98
2018-12-26T03:23:48.018Z,38.20
2018-12-26T03:26:18.314Z,37.65
2018-12-26T03:28:48.580Z,37.85
2018-12-26T03:31:20.479Z,37.25
2018-12-26T03:33:50.809Z,37.45
2018-12-26T03:36:40.104Z,35.17
2018-12-26T03:39:10.385Z,34.70
2018-12-26T03:41:40.679Z,34.27
2018-12-26T03:44:10.960Z,33.98
2018-12-26T03:46:41.288Z,33.98
2018-12-26T03:49:11.632Z,32.90
2018-12-26T03:51:41.958Z,35.13
2018-12-26T03:54:12.302Z,32.95
2018-12-26T03:56:42.562Z,32.65
2018-12-26T03:59:12.914Z,32.30
2018-12-26T04:01:43.235Z,33.58
2018-12-26T04:04:13.531Z,32.30
2018-12-26T04:06:43.849Z,31.15
2018-12-26T04:09:14.123Z,32.85
2018-12-26T04:11:44.483Z,31.50
2018-12-26T04:14:16.358Z,32.28
2018-12-26T04:16:46.873Z,31.10
2018-12-26T04:19:17.230Z,29.50
2018-12-26T04:21:47.530Z,29.57
2018-12-26T04:24:17.794Z,29.85
2018-12-26T04:26:48.076Z,29.65
2018-12-26T04:29:18.327Z,28.75
2018-12-26T04:31:48.677Z,28.70
2018-12-26T04:34:19.006Z,28.12
2018-12-26T04:36:49.299Z,28.07
2018-12-26T04:42:29.636Z,27.20
2018-12-26T04:44:59.961Z,27.17
2018-12-26T04:47:30.245Z,26.93
2018-12-26T04:50:00.575Z,26.20
2018-12-26T04:52:31.123Z,25.55
2018-12-26T04:55:01.379Z,27.27
2018-12-26T04:57:31.726Z,26.23
2018-12-26T05:00:20.825Z,26.35
2018-12-26T05:02:51.156Z,24.63
2018-12-26T05:05:21.415Z,25.30
2018-12-26T05:07:51.745Z,24.35
2018-12-26T05:10:22.195Z,23.90
2018-12-26T05:12:52.435Z,24.65
2018-12-26T05:15:22.715Z,24.00
2018-12-26T05:17:53.049Z,24.15
2018-12-26T05:20:23.416Z,22.07
2018-12-26T05:22:53.739Z,21.75
2018-12-26T05:25:24.036Z,22.52
2018-12-26T05:27:54.359Z,22.07
2018-12-26T05:30:24.724Z,21.52
2018-12-26T05:32:55.008Z,21.30
2018-12-26T05:35:25.261Z,21.12
2018-12-26T05:37:55.627Z,20.25
2018-12-26T05:40:25.891Z,21.20
2018-12-26T05:42:56.163Z,20.90
2018-12-26T05:45:26.423Z,21.52
2018-12-26T05:47:56.707Z,19.50
2018-12-26T05:50:27.036Z,20.15
2018-12-26T05:52:57.389Z,20.32
2018-12-26T05:55:27.718Z,20.05
2018-12-26T05:57:58.004Z,19.70
2018-12-26T06:00:28.351Z,19.50
2018-12-26T06:02:58.671Z,19.17
2018-12-26T06:05:29.016Z,18.87
2018-12-26T06:07:59.279Z,19.17
2018-12-26T06:10:29.567Z,18.50
2018-12-26T06:12:59.822Z,17.77
2018-12-26T06:15:30.102Z,17.32
2018-12-26T06:18:00.380Z,21.00
2018-12-26T06:20:30.666Z,28.60
2018-12-26T06:23:00.991Z,30.15
2018-12-26T06:25:31.275Z,43.17
2018-12-26T06:28:01.552Z,36.10
2018-12-26T06:30:31.811Z,37.53
2018-12-26T06:33:02.149Z,39.18
2018-12-26T06:35:32.493Z,43.45
2018-12-26T06:38:02.815Z,53.55
2018-12-26T06:40:33.111Z,47.78
2018-12-26T06:43:03.437Z,84.90
2018-12-26T06:45:33.723Z,88.73
2018-12-26T06:48:04.051Z,77.10
2018-12-26T06:50:34.315Z,60.85
2018-12-26T06:53:04.573Z,57.13
2018-12-26T06:55:34.836Z,56.48
2018-12-26T06:58:05.178Z,55.08
2018-12-26T07:00:35.446Z,53.48
2018-12-26T07:03:05.704Z,52.48
2018-12-26T07:05:35.970Z,56.75
2018-12-26T07:08:06.303Z,65.62
2018-12-26T07:10:36.628Z,77.37
2018-12-26T07:13:06.920Z,81.40
2018-12-26T07:15:37.191Z,86.40
2018-12-26T07:18:07.501Z,76.25
2018-12-26T07:20:37.763Z,72.78
2018-12-26T07:23:08.118Z,71.70
2018-12-26T07:25:38.446Z,70.83
2018-12-26T07:28:09.498Z,67.75
2018-12-26T07:30:46.120Z,67.08
2018-12-26T07:33:16.449Z,63.68
2018-12-26T07:35:46.737Z,67.87
2018-12-26T07:38:18.607Z,72.58
2018-12-26T07:40:48.958Z,73.47
2018-12-26T07:43:19.286Z,73.60
2018-12-26T07:45:49.668Z,71.53
2018-12-26T07:48:19.920Z,75.62
2018-12-26T07:50:50.216Z,68.83
2018-12-26T07:53:20.555Z,78.25
2018-12-26T07:55:50.840Z,82.72
2018-12-26T07:58:21.179Z,81.20
2018-12-26T08:00:51.468Z,116.45
2018-12-26T08:03:21.743Z,123.42
2018-12-26T08:05:52.049Z,100.65
2018-12-26T08:08:22.397Z,111.42
2018-12-26T08:10:52.776Z,94.28
2018-12-26T08:13:23.211Z,85.62
2018-12-26T08:15:53.563Z,82.33
2018-12-26T08:18:23.930Z,76.50
2018-12-26T08:20:54.222Z,73.28
2018-12-26T08:23:24.868Z,73.70
2018-12-26T08:25:55.226Z,63.30
2018-12-26T08:28:26.806Z,70.47
2018-12-26T08:31:02.955Z,66.37
2018-12-26T08:33:33.286Z,78.33
2018-12-26T08:36:03.664Z,78.12
2018-12-26T08:38:34.022Z,83.72
2018-12-26T08:41:04.282Z,90.50
2018-12-26T08:43:34.681Z,96.22
2018-12-26T08:46:05.101Z,93.97
2018-12-26T08:48:37.302Z,88.42
2018-12-26T08:51:07.695Z,83.67
2018-12-26T08:53:38.005Z,85.20
2018-12-26T08:59:23.083Z,87.08
2018-12-26T09:01:53.362Z,83.95
2018-12-26T09:04:23.660Z,84.52
2018-12-26T09:06:53.938Z,84.42
2018-12-26T09:09:24.318Z,86.08
2018-12-26T09:11:54.631Z,85.57
2018-12-26T09:14:25.068Z,83.85
2018-12-26T09:16:55.369Z,84.00
2018-12-26T09:19:25.734Z,85.60
2018-12-26T09:21:56.078Z,88.37
2018-12-26T09:24:28.519Z,89.35
2018-12-26T09:26:58.860Z,88.40
2018-12-26T09:29:29.138Z,84.95
2018-12-26T09:31:59.533Z,91.40
2018-12-26T09:34:29.878Z,95.35
2018-12-26T09:37:00.251Z,97.75
2018-12-26T09:39:30.589Z,104.35
2018-12-26T09:42:00.947Z,98.03
2018-12-26T09:44:31.334Z,93.42
2018-12-26T09:47:01.691Z,89.07
2018-12-26T09:49:31.971Z,85.40
2018-12-26T09:52:02.292Z,84.75
2018-12-26T09:54:32.598Z,82.42
2018-12-26T09:57:02.874Z,81.80
2018-12-26T09:59:33.167Z,82.65
2018-12-26T10:02:03.501Z,83.25
2018-12-26T10:04:33.884Z,85.10
2018-12-26T10:07:04.155Z,79.17
2018-12-26T10:09:34.471Z,83.70
2018-12-26T10:12:04.831Z,82.62
2018-12-26T10:14:35.166Z,79.10
2018-12-26T10:17:05.549Z,78.52
2018-12-26T10:19:35.876Z,80.87
2018-12-26T10:22:25.068Z,79.45
2018-12-26T10:24:55.411Z,87.15
2018-12-26T10:27:26.033Z,83.22
2018-12-26T10:29:56.383Z,85.77
2018-12-26T10:32:26.708Z,82.53
2018-12-26T10:34:57.037Z,72.72
2018-12-26T10:37:27.370Z,72.53
2018-12-26T10:39:57.630Z,72.80
2018-12-26T10:42:27.969Z,74.67
2018-12-26T10:44:58.321Z,73.17
2018-12-26T10:47:28.592Z,72.55
2018-12-26T10:49:58.876Z,69.35
2018-12-26T10:52:29.145Z,70.22
2018-12-26T10:55:18.305Z,71.05
2018-12-26T10:57:48.637Z,69.05
2018-12-26T11:00:19.007Z,69.40
2018-12-26T11:02:49.352Z,69.55
2018-12-26T11:05:19.720Z,67.90
2018-12-26T11:07:50.046Z,67.40
2018-12-26T11:10:20.382Z,66.65
2018-12-26T11:12:50.708Z,67.12
2018-12-26T11:15:20.963Z,67.00
2018-12-26T11:17:51.303Z,65.85
2018-12-26T11:20:21.630Z,65.42
2018-12-26T11:22:51.994Z,64.32
2018-12-26T11:25:22.314Z,63.80
2018-12-26T11:27:52.982Z,64.00
2018-12-26T11:30:43.743Z,64.17
2018-12-26T11:33:14.076Z,63.70
2018-12-26T11:35:44.366Z,61.37
2018-12-26T11:38:14.734Z,62.25
2018-12-26T11:40:45.220Z,61.48
2018-12-26T11:43:15.520Z,59.40
2018-12-26T11:45:45.876Z,59.90
2018-12-26T11:48:16.220Z,59.45
2018-12-26T11:50:46.649Z,59.53
2018-12-26T11:53:16.996Z,60.43
2018-12-26T11:55:47.337Z,59.45
2018-12-26T11:58:17.695Z,59.53
2018-12-26T12:00:48.032Z,57.83
2018-12-26T12:03:18.352Z,56.98
2018-12-26T12:05:48.692Z,56.65
2018-12-26T12:08:19.158Z,55.88
2018-12-26T12:10:50.257Z,56.30
2018-12-26T12:16:28.731Z,57.62
2018-12-26T12:18:59.087Z,54.15
2018-12-26T12:21:29.432Z,56.35
2018-12-26T12:23:59.807Z,53.38
2018-12-26T12:26:30.602Z,54.48
2018-12-26T12:29:00.916Z,52.62
2018-12-26T12:31:31.273Z,52.30
2018-12-26T12:34:01.528Z,54.45
2018-12-26T12:36:31.889Z,51.48
2018-12-26T12:39:40.295Z,53.38
2018-12-26T12:42:10.576Z,52.45
2018-12-26T12:44:40.911Z,52.08
2018-12-26T12:47:11.476Z,51.37
2018-12-26T12:49:41.745Z,49.53
2018-12-26T12:52:12.031Z,50.55
2018-12-26T12:54:42.390Z,50.25
2018-12-26T12:57:12.666Z,50.33
2018-12-26T12:59:44.867Z,49.83
2018-12-26T13:02:34.032Z,50.55
2018-12-26T13:05:06.589Z,48.83
2018-12-26T13:07:36.951Z,49.00
2018-12-26T13:10:07.206Z,49.20
2018-12-26T13:12:37.566Z,48.08
2018-12-26T13:15:07.860Z,47.95
2018-12-26T13:17:38.279Z,47.43
2018-12-26T13:20:09.582Z,47.08
2018-12-26T13:22:39.850Z,46.70
2018-12-26T13:25:10.233Z,47.50
2018-12-26T13:27:40.607Z,44.93
2018-12-26T13:30:22.252Z,44.18
2018-12-26T13:32:52.543Z,46.68
2018-12-26T13:35:22.875Z,47.93
2018-12-26T13:37:53.214Z,49.95
2018-12-26T13:40:23.543Z,49.48
2018-12-26T13:42:53.899Z,51.92
2018-12-26T13:45:24.167Z,49.65
2018-12-26T13:47:56.799Z,50.23
2018-12-26T13:50:27.419Z,54.45
2018-12-26T13:52:57.767Z,52.93
2018-12-26T13:55:28.161Z,57.03
2018-12-26T13:57:58.517Z,54.75
2018-12-26T14:00:28.849Z,57.50
2018-12-26T14:02:59.211Z,56.90
2018-12-26T14:05:29.581Z,54.77
2018-12-26T14:07:59.899Z,55.85
2018-12-26T14:10:49.080Z,57.65
2018-12-26T14:16:23.975Z,59.80
2018-12-26T14:18:54.286Z,56.48
2018-12-26T14:21:24.639Z,56.37
2018-12-26T14:24:13.833Z,56.60
2018-12-26T14:26:56.167Z,64.45
2018-12-26T14:29:26.645Z,62.30
2018-12-26T14:31:57.236Z,63.92
2018-12-26T14:34:28.752Z,64.65
2018-12-26T14:36:59.095Z,64.70
2018-12-26T14:39:29.659Z,66.22
2018-12-26T14:42:00.004Z,68.47
2018-12-26T14:44:30.705Z,66.28
2018-12-26T14:47:01.279Z,65.65
2018-12-26T14:49:31.658Z,65.03
2018-12-26T14:52:02.016Z,71.45
2018-12-26T14:57:27.630Z,80.72
2018-12-26T14:59:58.439Z,88.42
2018-12-26T15:02:48.140Z,83.20
2018-12-26T15:05:20.317Z,88.03
2018-12-26T15:07:50.877Z,87.78
2018-12-26T15:10:22.436Z,88.47
2018-12-26T15:12:52.840Z,75.72
2018-12-26T15:15:23.299Z,63.35
2018-12-26T15:17:54.766Z,66.82
2018-12-26T15:26:36.698Z,73.90
2018-12-26T15:29:07.311Z,79.58
2018-12-26T15:31:38.139Z,75.65
2018-12-26T15:34:08.819Z,76.97
2018-12-26T15:37:00.467Z,83.50
2018-12-26T15:39:31.150Z,83.25
2018-12-26T15:42:01.616Z,83.30
2018-12-26T15:44:32.191Z,87.20
2018-12-26T15:47:07.491Z,95.32
2018-12-26T15:49:37.996Z,89.85
2018-12-26T15:52:10.668Z,93.50
2018-12-26T15:55:01.013Z,93.33
2018-12-26T15:57:31.778Z,90.87
2018-12-26T16:00:02.543Z,91.87
2018-12-26T16:02:33.293Z,90.07
2018-12-26T16:05:03.855Z,97.55
2018-12-26T16:07:34.588Z,96.20
2018-12-26T16:10:05.893Z,93.97
2018-12-26T16:12:36.663Z,95.77
2018-12-26T16:15:10.519Z,92.17
2018-12-26T16:17:41.274Z,95.62
2018-12-26T16:20:12.429Z,91.40
2018-12-26T16:22:43.447Z,87.30
2018-12-26T16:25:14.672Z,86.72
2018-12-26T16:31:10.883Z,79.75
2018-12-26T16:33:41.166Z,78.33
2018-12-26T16:36:12.991Z,88.95
2018-12-26T16:38:54.490Z,94.37
2018-12-26T16:41:24.891Z,88.30
2018-12-26T16:43:56.877Z,89.95
2018-12-26T16:46:27.223Z,91.45
2018-12-26T16:48:57.740Z,88.78
2018-12-26T16:51:28.111Z,90.12
2018-12-26T16:53:58.483Z,87.05
2018-12-26T16:56:28.867Z,90.20
2018-12-26T16:58:59.257Z,87.30
2018-12-26T17:01:32.170Z,89.83
2018-12-26T17:04:02.616Z,88.52
2018-12-26T17:06:35.454Z,87.57
2018-12-26T17:09:09.091Z,83.62
2018-12-26T17:14:30.979Z,84.77
2018-12-26T17:17:12.733Z,86.22
2018-12-26T17:19:43.118Z,88.70
2018-12-26T17:22:13.450Z,86.80
2018-12-26T17:24:43.922Z,88.80
2018-12-26T17:27:14.349Z,88.75
2018-12-26T17:29:44.892Z,87.92
2018-12-26T17:32:15.442Z,88.85
2018-12-26T17:34:46.349Z,92.20
2018-12-26T17:37:49.953Z,90.90
2018-12-26T17:40:21.982Z,90.12
2018-12-26T17:43:18.788Z,90.45
2018-12-26T17:45:49.587Z,88.03
2018-12-26T17:48:20.185Z,90.03
2018-12-26T17:50:51.830Z,89.75
2018-12-26T17:54:00.705Z,92.47
2018-12-26T17:56:45.082Z,91.47
2018-12-26T17:59:53.338Z,91.20
2018-12-26T18:02:45.425Z,91.63
2018-12-26T18:05:17.585Z,91.70
2018-12-26T18:07:50.040Z,94.97
2018-12-26T18:10:21.742Z,97.80
2018-12-26T18:16:19.099Z,98.85
2018-12-26T18:18:49.898Z,98.37
2018-12-26T18:21:20.322Z,100.72
2018-12-26T18:27:14.862Z,101.95
2018-12-26T18:29:46.599Z,99.90
2018-12-26T18:32:17.177Z,102.42
2018-12-26T18:34:47.742Z,103.50
2018-12-26T18:37:18.439Z,102.58
2018-12-26T18:39:48.884Z,109.57
2018-12-26T18:42:19.510Z,109.25
2018-12-26T18:44:50.372Z,112.57
2018-12-26T18:47:23.465Z,105.25
2018-12-26T18:49:53.902Z,108.52
2018-12-26T18:52:24.473Z,110.03
2018-12-26T18:54:54.700Z,106.40
2018-12-26T18:57:25.174Z,105.25
2018-12-26T19:05:55.180Z,98.07
2018-12-26T19:08:25.543Z,96.00
2018-12-26T19:10:55.936Z,96.30
2018-12-26T19:13:26.334Z,98.87
2018-12-26T19:15:57.258Z,105.25
2018-12-26T19:18:46.889Z,103.72
2018-12-26T19:21:17.321Z,101.18
2018-12-26T19:23:48.136Z,101.12
2018-12-26T19:26:18.721Z,98.95
2018-12-26T19:28:49.454Z,100.35
2018-12-26T19:31:20.347Z,100.33
2018-12-26T19:34:00.339Z,100.12
2018-12-26T19:36:32.363Z,98.60
2018-12-26T19:39:02.947Z,97.10
2018-12-26T19:41:37.033Z,95.87
2018-12-26T19:44:07.998Z,95.47
2018-12-26T19:46:57.553Z,92.27
2018-12-26T19:49:28.732Z,93.47
2018-12-26T19:52:18.253Z,90.28
2018-12-26T19:54:49.268Z,92.15
2018-12-26T19:57:22.669Z,92.10
2018-12-26T19:59:53.117Z,96.55
2018-12-26T20:02:23.650Z,99.30
2018-12-26T20:04:54.000Z,96.55
2018-12-26T20:07:26.505Z,94.83
2018-12-26T20:09:56.895Z,94.65
2018-12-26T20:12:46.413Z,95.92
2018-12-26T20:15:35.830Z,94.35
2018-12-26T20:18:06.273Z,93.92
2018-12-26T20:20:36.849Z,95.40
2018-12-26T20:23:07.234Z,94.47
2018-12-26T20:25:37.645Z,92.20
2018-12-26T20:28:08.616Z,92.25
2018-12-26T20:30:43.715Z,94.70
2018-12-26T20:33:14.168Z,96.78
2018-12-26T20:35:47.593Z,96.70
2018-12-26T20:38:19.487Z,97.57
2018-12-26T20:40:49.909Z,90.10
2018-12-26T20:43:20.356Z,86.10
2018-12-26T20:45:50.788Z,85.85
2018-12-26T20:48:22.185Z,83.65
2018-12-26T20:54:59.099Z,83.20
2018-12-26T20:57:29.601Z,82.67
2018-12-26T20:59:59.982Z,84.67
2018-12-26T21:02:30.375Z,84.67
2018-12-26T21:05:00.769Z,83.87
2018-12-26T21:07:31.390Z,81.53
2018-12-26T21:10:02.900Z,83.25
2018-12-26T21:12:34.804Z,83.03
2018-12-26T21:15:05.160Z,83.25
2018-12-26T21:17:35.528Z,85.05
2018-12-26T21:20:07.155Z,96.50
2018-12-26T21:22:37.491Z,111.72
2018-12-26T21:25:09.146Z,102.27
2018-12-26T21:27:39.426Z,116.93
2018-12-26T21:30:12.796Z,111.12
2018-12-26T21:32:43.233Z,117.67
2018-12-26T21:35:15.158Z,111.70
2018-12-26T21:37:45.433Z,114.15
2018-12-26T21:40:17.353Z,118.85
2018-12-26T21:42:49.615Z,121.35
2018-12-26T21:45:19.992Z,116.30
2018-12-26T21:47:50.342Z,115.95
2018-12-26T21:50:20.717Z,119.25
2018-12-26T21:52:53.243Z,112.80
2018-12-26T21:55:23.592Z,111.62
2018-12-26T21:57:54.363Z,115.62
2018-12-26T22:00:24.705Z,113.52
2018-12-26T22:02:55.078Z,112.12
2018-12-26T22:05:25.427Z,111.88
2018-12-26T22:07:55.844Z,108.17
2018-12-26T22:10:26.190Z,106.52
2018-12-26T22:12:56.562Z,103.22
2018-12-26T22:15:26.965Z,107.67
2018-12-26T22:17:57.266Z,104.50
2018-12-26T22:20:28.360Z,102.58
2018-12-26T22:22:58.732Z,102.50
2018-12-26T22:25:29.097Z,100.50
2018-12-26T22:27:59.879Z,102.78
2018-12-26T22:30:30.353Z,99.97
2018-12-26T22:33:01.044Z,98.52
2018-12-26T22:35:32.556Z,96.32
2018-12-26T22:38:22.504Z,92.45
2018-12-26T22:44:07.860Z,91.67
2018-12-26T22:46:38.165Z,91.82
2018-12-26T22:52:13.521Z,87.62
2018-12-26T22:54:43.844Z,87.70
2018-12-26T22:57:14.441Z,87.60
2018-12-26T22:59:44.698Z,87.80
2018-12-26T23:02:15.060Z,85.90
2018-12-26T23:04:45.399Z,83.22
2018-12-26T23:07:15.783Z,83.52
2018-12-26T23:09:46.108Z,84.03
2018-12-26T23:12:16.447Z,82.12
2018-12-26T23:14:46.804Z,78.75
2018-12-26T23:17:17.193Z,79.95
2018-12-26T23:19:47.711Z,77.70
2018-12-26T23:22:18.039Z,78.47
2018-12-26T23:24:48.395Z,75.10
2018-12-26T23:27:18.733Z,75.45
2018-12-26T23:29:49.095Z,74.47
2018-12-26T23:32:19.361Z,73.07
2018-12-26T23:34:49.719Z,72.32
2018-12-26T23:37:20.076Z,71.50
2018-12-26T23:39:50.417Z,71.15
2018-12-26T23:42:20.725Z,67.75
2018-12-26T23:44:51.053Z,68.67
2018-12-26T23:50:16.590Z,67.12
2018-12-26T23:52:46.862Z,66.95
2018-12-26T23:55:17.153Z,66.77
2018-12-26T23:57:47.472Z,66.00
